createdAt,value
2024-04-30T00:01:58.013Z,51.53
2024-04-30T00:04:26.226Z,51.63
2024-04-30T00:06:55.078Z,51.79
2024-04-30T00:09:22.641Z,51.89
2024-04-30T00:11:50.267Z,52.11
2024-04-30T00:14:17.837Z,52.33
2024-04-30T00:16:45.508Z,52.37
2024-04-30T00:19:13.253Z,52.60
2024-04-30T00:21:42.905Z,52.85
2024-04-30T00:24:10.892Z,53.30
2024-04-30T00:26:38.665Z,53.43
2024-04-30T00:29:06.196Z,53.56
2024-04-30T00:31:33.799Z,53.80
2024-04-30T00:34:01.521Z,54.06
2024-04-30T00:36:29.141Z,54.33
2024-04-30T00:38:56.792Z,54.38
2024-04-30T00:41:24.370Z,54.41
2024-04-30T00:43:51.927Z,54.57
2024-04-30T00:46:19.639Z,54.51
2024-04-30T00:48:47.199Z,54.55
2024-04-30T00:51:14.832Z,54.66
2024-04-30T00:53:42.788Z,54.58
2024-04-30T00:56:10.438Z,54.91
2024-04-30T00:58:38.115Z,54.98
2024-04-30T01:01:05.971Z,55.15
2024-04-30T01:03:33.991Z,55.28
2024-04-30T01:06:02.358Z,55.58
2024-04-30T01:08:29.852Z,55.75
2024-04-30T01:10:57.406Z,55.72
2024-04-30T01:13:28.398Z,55.77
2024-04-30T01:15:56.065Z,55.78
2024-04-30T01:18:23.701Z,55.79
2024-04-30T01:20:51.272Z,55.86
2024-04-30T01:23:18.880Z,55.84
2024-04-30T01:25:46.591Z,55.90
2024-04-30T01:28:14.369Z,55.90
2024-04-30T01:33:29.722Z,56.14
2024-04-30T01:35:58.171Z,56.17
2024-04-30T01:38:26.269Z,56.08
2024-04-30T01:40:53.912Z,56.15
2024-04-30T01:43:21.622Z,56.64
2024-04-30T01:45:49.302Z,56.58
2024-04-30T01:48:17.007Z,56.49
2024-04-30T01:50:44.641Z,56.46
2024-04-30T01:53:12.207Z,56.75
2024-04-30T01:55:39.772Z,56.79
2024-04-30T01:58:07.355Z,56.64
2024-04-30T02:00:35.190Z,56.77
2024-04-30T02:03:02.973Z,56.82
2024-04-30T02:05:30.613Z,56.71
2024-04-30T02:07:59.594Z,56.90
2024-04-30T02:10:27.351Z,56.84
2024-04-30T02:12:55.023Z,57.00
2024-04-30T02:15:23.014Z,56.95
2024-04-30T02:17:50.739Z,57.21
2024-04-30T02:20:18.386Z,57.27
2024-04-30T02:22:45.914Z,57.28
2024-04-30T02:25:13.503Z,57.42
2024-04-30T02:27:41.944Z,57.63
2024-04-30T02:30:17.771Z,57.49
2024-04-30T02:33:04.484Z,57.66
2024-04-30T02:35:32.397Z,57.49
2024-04-30T02:37:59.967Z,57.70
2024-04-30T02:40:27.498Z,57.76
2024-04-30T02:42:55.223Z,57.87
2024-04-30T02:45:23.145Z,57.83
2024-04-30T02:47:50.707Z,57.89
2024-04-30T02:50:18.280Z,57.93
2024-04-30T02:52:45.848Z,57.89
2024-04-30T02:55:13.619Z,57.88
2024-04-30T02:57:41.163Z,58.05
2024-04-30T03:00:09.042Z,57.94
2024-04-30T03:02:36.702Z,57.93
2024-04-30T03:05:04.751Z,57.92
2024-04-30T03:07:32.437Z,58.07
2024-04-30T03:10:00.747Z,58.08
2024-04-30T03:12:28.485Z,58.18
2024-04-30T03:14:56.041Z,58.21
2024-04-30T03:17:23.667Z,58.34
2024-04-30T03:19:51.515Z,58.30
2024-04-30T03:22:19.376Z,58.54
2024-04-30T03:24:46.960Z,58.57
2024-04-30T03:27:14.548Z,58.58
2024-04-30T03:29:42.504Z,58.56
2024-04-30T03:32:09.959Z,58.64
2024-04-30T03:34:38.600Z,58.69
2024-04-30T03:37:06.379Z,58.69
2024-04-30T03:39:33.906Z,59.16
2024-04-30T03:42:01.658Z,59.29
2024-04-30T03:44:29.171Z,59.19
2024-04-30T03:46:56.853Z,59.28
2024-04-30T03:49:24.435Z,59.50
2024-04-30T03:51:52.168Z,59.64
2024-04-30T03:54:19.756Z,59.89
2024-04-30T03:56:47.304Z,59.85
2024-04-30T03:59:17.170Z,59.88
2024-04-30T04:01:44.713Z,59.82
2024-04-30T04:04:12.352Z,59.95
2024-04-30T04:06:40.013Z,59.88
2024-04-30T04:09:07.655Z,59.88
2024-04-30T04:11:54.331Z,59.92
2024-04-30T04:14:41.663Z,59.79
2024-04-30T04:17:10.597Z,59.61
2024-04-30T04:19:38.918Z,59.53
2024-04-30T04:22:07.043Z,59.52
2024-04-30T04:24:34.899Z,59.46
2024-04-30T04:27:02.814Z,59.28
2024-04-30T04:29:30.773Z,59.27
2024-04-30T04:32:00.988Z,59.10
2024-04-30T04:34:29.080Z,59.12
2024-04-30T04:36:56.723Z,59.03
2024-04-30T04:39:24.383Z,59.16
2024-04-30T04:41:52.056Z,59.15
2024-04-30T04:44:19.611Z,59.10
2024-04-30T04:46:47.237Z,59.10
2024-04-30T04:49:14.734Z,59.04
2024-04-30T04:51:42.344Z,58.83
2024-04-30T04:54:09.936Z,58.86
2024-04-30T04:56:37.637Z,58.82
2024-04-30T04:59:05.252Z,58.75
2024-04-30T05:01:32.944Z,58.54
2024-04-30T05:04:01.079Z,58.38
2024-04-30T05:06:28.862Z,58.28
2024-04-30T05:08:56.396Z,58.16
2024-04-30T05:11:24.387Z,58.10
2024-04-30T05:13:52.353Z,57.79
2024-04-30T05:16:20.068Z,57.65
2024-04-30T05:18:47.682Z,57.66
2024-04-30T05:21:15.217Z,57.61
2024-04-30T05:23:42.788Z,57.46
2024-04-30T05:26:10.352Z,57.43
2024-04-30T05:28:38.649Z,57.38
2024-04-30T05:31:06.472Z,57.40
2024-04-30T05:33:34.232Z,57.42
2024-04-30T05:36:02.186Z,57.29
2024-04-30T05:38:29.833Z,57.09
2024-04-30T05:40:57.420Z,57.15
2024-04-30T05:43:25.171Z,56.76
2024-04-30T05:45:52.879Z,56.96
2024-04-30T05:48:20.429Z,56.82
2024-04-30T05:50:48.088Z,56.81
2024-04-30T05:53:15.911Z,56.73
2024-04-30T05:55:43.663Z,56.41
2024-04-30T05:58:13.656Z,55.96
2024-04-30T06:00:41.440Z,56.00
2024-04-30T06:03:09.193Z,55.82
2024-04-30T06:05:36.993Z,55.62
2024-04-30T06:08:04.925Z,55.26
2024-04-30T06:10:32.506Z,55.04
2024-04-30T06:13:00.082Z,54.78
2024-04-30T06:15:28.020Z,54.60
2024-04-30T06:17:57.166Z,54.49
2024-04-30T06:20:24.965Z,54.27
2024-04-30T06:22:52.744Z,53.86
2024-04-30T06:25:20.359Z,53.81
2024-04-30T06:27:48.867Z,53.85
2024-04-30T06:30:16.471Z,53.96
2024-04-30T06:32:44.212Z,53.92
2024-04-30T06:35:11.996Z,53.38
2024-04-30T06:37:39.684Z,52.90
2024-04-30T06:40:07.765Z,52.76
2024-04-30T06:42:35.370Z,52.99
2024-04-30T06:45:03.281Z,52.84
2024-04-30T06:47:31.054Z,52.62
2024-04-30T06:49:58.939Z,52.10
2024-04-30T06:52:26.666Z,51.74
2024-04-30T06:54:54.384Z,51.34
2024-04-30T06:57:22.030Z,50.97
2024-04-30T06:59:49.786Z,51.15
2024-04-30T07:02:20.273Z,50.71
2024-04-30T07:04:47.958Z,50.70
2024-04-30T07:07:15.716Z,50.24
2024-04-30T07:09:43.302Z,49.34
2024-04-30T07:12:12.510Z,49.09
2024-04-30T07:14:40.574Z,49.29
2024-04-30T07:17:09.305Z,49.06
2024-04-30T07:19:37.606Z,48.71
2024-04-30T07:22:05.598Z,48.71
2024-04-30T07:24:33.199Z,48.44
2024-04-30T07:27:00.789Z,48.18
2024-04-30T07:30:19.611Z,47.68
2024-04-30T07:33:06.180Z,47.29
2024-04-30T07:35:33.968Z,46.92
2024-04-30T07:38:01.626Z,46.63
2024-04-30T07:40:29.358Z,46.53
2024-04-30T07:42:56.989Z,46.13
2024-04-30T07:45:24.647Z,45.88
2024-04-30T07:47:52.334Z,45.76
2024-04-30T07:50:20.279Z,45.62
2024-04-30T07:52:47.885Z,45.33
2024-04-30T07:55:15.452Z,45.08
2024-04-30T07:57:43.144Z,44.89
2024-04-30T08:00:12.006Z,44.24
2024-04-30T08:02:39.769Z,44.21
2024-04-30T08:05:07.401Z,43.59
2024-04-30T08:07:34.999Z,43.18
2024-04-30T08:10:04.678Z,43.21
2024-04-30T08:12:32.530Z,42.50
2024-04-30T08:15:01.092Z,42.51
2024-04-30T08:17:30.214Z,42.47
2024-04-30T08:19:57.777Z,41.85
2024-04-30T08:22:26.044Z,41.09
2024-04-30T08:24:53.550Z,41.11
2024-04-30T08:27:23.783Z,41.09
2024-04-30T08:29:53.092Z,40.38
2024-04-30T08:32:21.208Z,39.61
2024-04-30T08:34:48.685Z,38.85
2024-04-30T08:37:16.244Z,38.46
2024-04-30T08:39:43.777Z,38.95
2024-04-30T08:42:11.355Z,38.75
2024-04-30T08:44:38.940Z,37.69
2024-04-30T08:47:06.598Z,37.62
2024-04-30T08:49:42.865Z,37.66
2024-04-30T08:52:16.221Z,36.89
2024-04-30T08:54:43.930Z,35.91
2024-04-30T08:57:11.720Z,35.71
2024-04-30T08:59:39.259Z,35.27
2024-04-30T09:02:06.993Z,35.51
2024-04-30T09:04:34.674Z,35.23
2024-04-30T09:07:02.492Z,34.83
2024-04-30T09:09:30.035Z,34.32
2024-04-30T09:11:58.377Z,34.05
2024-04-30T09:14:25.974Z,33.60
2024-04-30T09:16:53.956Z,33.59
2024-04-30T09:19:25.658Z,34.34
2024-04-30T09:22:02.589Z,33.26
2024-04-30T09:24:30.273Z,32.55
2024-04-30T09:26:58.095Z,31.83
2024-04-30T09:29:35.162Z,30.25
2024-04-30T09:32:03.063Z,29.68
2024-04-30T09:34:40.379Z,29.69
2024-04-30T09:37:18.635Z,29.85
2024-04-30T09:39:50.054Z,30.43
2024-04-30T09:42:17.774Z,30.43
2024-04-30T09:44:45.355Z,30.41
2024-04-30T09:47:14.234Z,30.32
2024-04-30T09:49:42.167Z,30.29
2024-04-30T09:52:09.934Z,29.33
2024-04-30T09:54:37.912Z,28.92
2024-04-30T09:57:06.918Z,28.45
2024-04-30T09:59:34.699Z,28.14
2024-04-30T10:02:04.284Z,27.66
2024-04-30T10:04:31.921Z,27.92
2024-04-30T10:06:59.539Z,27.69
2024-04-30T10:09:27.152Z,27.49
2024-04-30T10:11:54.640Z,27.37
2024-04-30T10:14:29.017Z,27.35
2024-04-30T10:17:00.310Z,27.62
2024-04-30T10:19:29.095Z,27.63
2024-04-30T10:21:56.754Z,27.45
2024-04-30T10:24:24.446Z,27.01
2024-04-30T10:26:52.314Z,26.18
2024-04-30T10:29:20.133Z,26.13
2024-04-30T10:31:48.835Z,26.17
2024-04-30T10:34:17.187Z,26.05
2024-04-30T10:36:48.889Z,26.04
2024-04-30T10:39:28.471Z,26.08
2024-04-30T10:41:56.155Z,25.98
2024-04-30T10:44:23.843Z,25.74
2024-04-30T10:46:51.461Z,25.85
2024-04-30T10:49:21.479Z,25.61
2024-04-30T10:51:50.767Z,25.46
2024-04-30T10:54:18.355Z,25.71
2024-04-30T10:56:46.017Z,25.03
2024-04-30T10:59:13.643Z,25.06
2024-04-30T11:01:41.535Z,24.96
2024-04-30T11:04:10.124Z,24.92
2024-04-30T11:06:38.855Z,25.02
2024-04-30T11:09:07.500Z,24.91
2024-04-30T11:11:47.740Z,24.93
2024-04-30T11:14:15.949Z,25.41
2024-04-30T11:16:47.714Z,24.57
2024-04-30T11:19:15.907Z,24.21
2024-04-30T11:21:44.636Z,24.40
2024-04-30T11:24:12.334Z,24.39
2024-04-30T11:26:39.979Z,25.10
2024-04-30T11:29:22.937Z,25.08
2024-04-30T11:31:55.457Z,24.72
2024-04-30T11:34:23.222Z,24.41
2024-04-30T11:36:51.519Z,24.17
2024-04-30T11:39:19.198Z,24.43
2024-04-30T11:41:52.245Z,24.46
2024-04-30T11:44:28.752Z,24.01
2024-04-30T11:46:56.408Z,24.22
2024-04-30T11:49:24.104Z,24.31
2024-04-30T11:51:51.832Z,24.39
2024-04-30T11:54:19.446Z,24.25
2024-04-30T11:56:47.026Z,24.33
2024-04-30T11:59:14.752Z,24.26
2024-04-30T12:01:42.360Z,24.23
2024-04-30T12:04:09.969Z,23.95
2024-04-30T12:06:38.944Z,23.62
2024-04-30T12:09:07.031Z,23.44
2024-04-30T12:11:40.795Z,23.24
2024-04-30T12:14:08.428Z,23.37
2024-04-30T12:16:36.043Z,22.95
2024-04-30T12:19:04.980Z,22.67
2024-04-30T12:21:32.754Z,22.58
2024-04-30T12:24:00.611Z,21.54
2024-04-30T12:26:28.382Z,21.79
2024-04-30T12:28:55.920Z,21.85
2024-04-30T12:31:23.532Z,21.71
2024-04-30T12:33:51.185Z,21.62
2024-04-30T12:36:18.953Z,21.70
2024-04-30T12:38:46.541Z,21.74
2024-04-30T12:41:14.187Z,21.43
2024-04-30T12:43:41.801Z,21.09
2024-04-30T12:46:09.572Z,21.17
2024-04-30T12:48:37.293Z,21.35
2024-04-30T12:51:05.259Z,21.17
2024-04-30T12:53:33.022Z,21.18
2024-04-30T12:56:03.336Z,21.21
2024-04-30T12:58:31.021Z,20.95
2024-04-30T13:00:58.625Z,20.90
2024-04-30T13:03:26.442Z,20.95
2024-04-30T13:05:54.209Z,20.85
2024-04-30T13:08:22.273Z,21.09
2024-04-30T13:10:50.345Z,20.85
2024-04-30T13:13:18.363Z,21.00
2024-04-30T13:15:46.094Z,21.42
2024-04-30T13:18:13.590Z,20.96
2024-04-30T13:20:41.335Z,21.07
2024-04-30T13:23:08.990Z,20.96
2024-04-30T13:25:38.179Z,20.79
2024-04-30T13:28:06.278Z,20.63
2024-04-30T13:30:34.257Z,20.12
2024-04-30T13:33:03.193Z,20.04
2024-04-30T13:35:30.994Z,19.80
2024-04-30T13:37:58.528Z,19.91
2024-04-30T13:40:26.267Z,20.17
2024-04-30T13:42:53.912Z,19.72
2024-04-30T13:45:21.590Z,19.79
2024-04-30T13:47:49.417Z,19.96
2024-04-30T13:50:17.059Z,20.00
2024-04-30T13:52:44.735Z,19.93
2024-04-30T13:55:12.464Z,19.36
2024-04-30T13:57:41.124Z,19.48
2024-04-30T14:00:11.877Z,19.06
2024-04-30T14:02:42.472Z,19.54
2024-04-30T14:05:10.142Z,19.81
2024-04-30T14:07:37.923Z,19.64
2024-04-30T14:10:05.792Z,19.23
2024-04-30T14:12:33.491Z,19.49
2024-04-30T14:15:01.561Z,19.41
2024-04-30T14:17:29.170Z,18.40
2024-04-30T14:19:56.869Z,18.14
2024-04-30T14:22:24.900Z,17.71
2024-04-30T14:24:52.711Z,17.28
2024-04-30T14:27:20.983Z,17.22
2024-04-30T14:29:48.546Z,17.59
2024-04-30T14:32:16.227Z,17.23
2024-04-30T14:34:43.962Z,17.30
2024-04-30T14:37:11.611Z,17.51
2024-04-30T14:39:39.343Z,17.13
2024-04-30T14:42:07.117Z,17.33
2024-04-30T14:44:36.109Z,17.42
2024-04-30T14:47:03.781Z,17.27
2024-04-30T14:49:31.455Z,17.12
2024-04-30T14:51:59.078Z,17.04
2024-04-30T14:54:26.637Z,16.75
2024-04-30T14:56:55.544Z,16.39
2024-04-30T14:59:23.657Z,16.20
2024-04-30T15:01:51.438Z,16.26
2024-04-30T15:04:19.304Z,16.23
2024-04-30T15:06:47.146Z,16.31
2024-04-30T15:09:15.097Z,16.33
2024-04-30T15:11:42.768Z,15.65
2024-04-30T15:14:10.403Z,15.59
2024-04-30T15:16:43.204Z,15.75
2024-04-30T15:19:11.433Z,15.92
2024-04-30T15:21:42.499Z,15.65
2024-04-30T15:24:10.030Z,15.33
2024-04-30T15:26:38.646Z,16.03
2024-04-30T15:29:06.707Z,16.19
2024-04-30T15:31:34.452Z,15.90
2024-04-30T15:34:02.244Z,15.64
2024-04-30T15:36:29.881Z,15.47
2024-04-30T15:38:57.671Z,15.33
2024-04-30T15:41:25.256Z,14.73
2024-04-30T15:43:53.241Z,14.66
2024-04-30T15:46:20.922Z,14.23
2024-04-30T15:48:50.830Z,14.22
2024-04-30T15:51:19.414Z,14.25
2024-04-30T15:53:47.138Z,14.06
2024-04-30T15:56:19.460Z,14.25
2024-04-30T15:58:48.094Z,14.25
2024-04-30T16:01:16.025Z,14.07
2024-04-30T16:03:44.481Z,14.21
2024-04-30T16:06:12.217Z,14.33
2024-04-30T16:08:39.847Z,14.22
2024-04-30T16:11:10.443Z,14.30
2024-04-30T16:13:41.095Z,14.83
2024-04-30T16:16:16.221Z,15.01
2024-04-30T16:18:47.490Z,15.06
2024-04-30T16:21:16.465Z,15.00
2024-04-30T16:23:44.369Z,14.79
2024-04-30T16:26:12.158Z,14.82
2024-04-30T16:28:43.538Z,14.67
2024-04-30T16:31:14.714Z,14.75
2024-04-30T16:33:42.959Z,14.62
2024-04-30T16:36:16.955Z,14.64
2024-04-30T16:38:45.083Z,14.83
2024-04-30T16:41:16.084Z,15.21
2024-04-30T16:43:43.967Z,15.59
2024-04-30T16:46:11.630Z,15.80
2024-04-30T16:48:39.764Z,16.17
2024-04-30T16:51:11.874Z,16.08
2024-04-30T16:53:39.968Z,16.02
2024-04-30T16:56:07.608Z,15.89
2024-04-30T16:58:35.276Z,15.85
2024-04-30T17:01:03.585Z,16.02
2024-04-30T17:03:31.655Z,16.31
2024-04-30T17:05:59.720Z,16.39
2024-04-30T17:08:28.341Z,16.87
2024-04-30T17:10:56.070Z,17.29
2024-04-30T17:13:24.127Z,17.74
2024-04-30T17:15:51.757Z,18.47
2024-04-30T17:18:20.429Z,19.22
2024-04-30T17:20:47.974Z,20.27
2024-04-30T17:23:18.126Z,20.99
2024-04-30T17:25:45.795Z,21.58
2024-04-30T17:28:17.312Z,22.28
2024-04-30T17:30:45.029Z,23.04
2024-04-30T17:33:13.269Z,23.49
2024-04-30T17:35:40.832Z,23.60
2024-04-30T17:38:09.654Z,24.41
2024-04-30T17:40:37.285Z,25.06
2024-04-30T17:43:07.978Z,25.37
2024-04-30T17:45:35.639Z,25.66
2024-04-30T17:48:03.630Z,26.03
2024-04-30T17:50:31.447Z,26.46
2024-04-30T17:52:59.132Z,26.67
2024-04-30T17:55:26.787Z,27.04
2024-04-30T17:57:54.489Z,27.21
2024-04-30T18:00:23.594Z,27.44
2024-04-30T18:02:52.600Z,27.90
2024-04-30T18:05:20.239Z,28.27
2024-04-30T18:07:47.939Z,28.65
2024-04-30T18:10:18.146Z,28.88
2024-04-30T18:12:48.017Z,29.37
2024-04-30T18:15:16.220Z,29.47
2024-04-30T18:17:43.963Z,29.85
2024-04-30T18:20:11.606Z,30.19
2024-04-30T18:22:41.531Z,30.53
2024-04-30T18:25:09.331Z,30.80
2024-04-30T18:27:36.927Z,31.27
2024-04-30T18:30:05.061Z,31.54
2024-04-30T18:32:32.747Z,31.87
2024-04-30T18:35:01.411Z,32.13
2024-04-30T18:37:29.056Z,32.20
2024-04-30T18:39:56.780Z,32.18
2024-04-30T18:42:24.858Z,32.17
2024-04-30T18:44:52.577Z,32.56
2024-04-30T18:47:20.158Z,32.77
2024-04-30T18:49:47.932Z,32.99
2024-04-30T18:52:15.689Z,33.03
2024-04-30T18:54:43.495Z,33.04
2024-04-30T18:57:11.337Z,33.61
2024-04-30T18:59:38.944Z,34.28
2024-04-30T19:02:06.688Z,34.67
2024-04-30T19:04:34.529Z,34.53
2024-04-30T19:07:02.348Z,35.07
2024-04-30T19:09:29.952Z,35.06
2024-04-30T19:11:59.318Z,34.83
2024-04-30T19:14:40.814Z,34.41
2024-04-30T19:17:08.377Z,34.29
2024-04-30T19:19:36.041Z,34.31
2024-04-30T19:22:03.685Z,34.76
2024-04-30T19:24:31.303Z,34.48
2024-04-30T19:26:58.899Z,35.04
2024-04-30T19:29:30.035Z,35.37
2024-04-30T19:31:57.781Z,35.37
2024-04-30T19:34:25.614Z,35.21
2024-04-30T19:36:54.083Z,35.30
2024-04-30T19:39:21.710Z,35.35
2024-04-30T19:41:49.180Z,35.46
2024-04-30T19:44:16.768Z,35.57
2024-04-30T19:46:44.689Z,35.61
2024-04-30T19:49:12.798Z,35.84
2024-04-30T19:51:40.506Z,36.10
2024-04-30T19:54:08.283Z,36.23
2024-04-30T19:56:35.770Z,36.21
2024-04-30T19:59:03.478Z,36.47
2024-04-30T20:01:31.307Z,36.36
2024-04-30T20:04:00.429Z,36.44
2024-04-30T20:06:28.531Z,36.45
2024-04-30T20:08:57.379Z,36.63
2024-04-30T20:11:30.188Z,36.52
2024-04-30T20:13:57.878Z,36.67
2024-04-30T20:16:26.760Z,36.62
2024-04-30T20:18:54.549Z,37.06
2024-04-30T20:21:22.428Z,36.89
2024-04-30T20:23:50.023Z,36.81
2024-04-30T20:26:17.536Z,36.79
2024-04-30T20:28:45.183Z,36.98
2024-04-30T20:31:12.819Z,36.94
2024-04-30T20:33:40.862Z,37.22
2024-04-30T20:36:18.086Z,37.27
2024-04-30T20:38:46.149Z,37.37
2024-04-30T20:41:14.112Z,37.46
2024-04-30T20:43:42.054Z,37.64
2024-04-30T20:46:09.557Z,37.59
2024-04-30T20:48:37.440Z,37.82
2024-04-30T20:51:05.386Z,37.99
2024-04-30T20:53:32.947Z,37.83
2024-04-30T20:56:00.501Z,37.81
2024-04-30T20:58:28.098Z,38.33
2024-04-30T21:00:55.747Z,38.25
2024-04-30T21:03:23.652Z,38.09
2024-04-30T21:05:51.702Z,38.29
2024-04-30T21:08:23.762Z,38.32
2024-04-30T21:10:51.741Z,38.18
2024-04-30T21:13:19.526Z,38.57
2024-04-30T21:15:47.211Z,38.50
2024-04-30T21:18:15.039Z,38.49
2024-04-30T21:20:42.692Z,38.61
2024-04-30T21:23:10.329Z,38.70
2024-04-30T21:25:37.895Z,38.73
2024-04-30T21:28:05.941Z,38.67
2024-04-30T21:30:33.728Z,38.62
2024-04-30T21:33:03.371Z,38.75
2024-04-30T21:35:31.416Z,38.82
2024-04-30T21:37:58.957Z,38.97
2024-04-30T21:40:26.908Z,39.19
2024-04-30T21:42:54.654Z,39.16
2024-04-30T21:45:22.390Z,39.24
2024-04-30T21:47:50.190Z,39.54
2024-04-30T21:50:17.903Z,39.65
2024-04-30T21:52:45.888Z,39.77
2024-04-30T21:55:13.707Z,39.80
2024-04-30T21:57:41.567Z,40.02
2024-04-30T22:00:13.676Z,40.12
2024-04-30T22:02:41.401Z,40.63
2024-04-30T22:05:09.009Z,40.66
2024-04-30T22:07:36.685Z,40.90
2024-04-30T22:10:04.852Z,41.10
2024-04-30T22:12:32.938Z,41.52
2024-04-30T22:15:00.766Z,42.01
2024-04-30T22:17:28.445Z,42.26
2024-04-30T22:19:56.213Z,42.54
2024-04-30T22:22:24.111Z,42.74
2024-04-30T22:24:51.653Z,43.05
2024-04-30T22:27:19.222Z,43.19
2024-04-30T22:29:48.545Z,43.22
2024-04-30T22:32:17.924Z,43.20
2024-04-30T22:34:45.536Z,43.26
2024-04-30T22:37:13.086Z,43.12
2024-04-30T22:39:40.743Z,43.05
2024-04-30T22:42:08.869Z,43.04
2024-04-30T22:44:36.805Z,43.00
2024-04-30T22:47:04.788Z,42.95
2024-04-30T22:49:32.427Z,42.92
2024-04-30T22:52:00.132Z,42.85
2024-04-30T22:54:27.830Z,42.80
2024-04-30T22:56:55.439Z,42.81
2024-04-30T22:59:23.367Z,42.75
2024-04-30T23:01:51.521Z,42.78
2024-04-30T23:04:19.499Z,42.79
2024-04-30T23:06:47.208Z,42.87
2024-04-30T23:09:15.276Z,42.98
2024-04-30T23:11:43.677Z,43.17
2024-04-30T23:14:11.770Z,43.12
2024-04-30T23:16:39.380Z,43.00
2024-04-30T23:19:07.096Z,42.98
2024-04-30T23:21:38.408Z,43.16
2024-04-30T23:24:06.106Z,43.09
2024-04-30T23:26:33.777Z,43.24
2024-04-30T23:29:01.635Z,43.29
2024-04-30T23:31:29.251Z,43.42
2024-04-30T23:33:56.795Z,43.42
2024-04-30T23:36:25.166Z,43.67
2024-04-30T23:38:52.731Z,43.81
2024-04-30T23:41:20.475Z,43.93
2024-04-30T23:43:48.192Z,43.91
2024-04-30T23:46:15.690Z,44.12
2024-04-30T23:48:43.366Z,44.21
2024-04-30T23:51:14.083Z,44.31
2024-04-30T23:53:42.219Z,44.27
2024-04-30T23:56:10.022Z,44.47
2024-04-30T23:58:38.326Z,44.69
